createdAt,value
2019-01-17T00:02:11.561Z,99040.84
2019-01-17T00:04:40.071Z,99033.91
2019-01-17T00:07:20.877Z,99026.19
2019-01-17T00:09:52.591Z,99033.34
2019-01-17T00:12:18.700Z,99033.23
2019-01-17T00:14:50.698Z,99032.52
2019-01-17T00:17:28.488Z,99027.73
2019-01-17T00:19:57.420Z,99019.47
2019-01-17T00:22:29.059Z,99024.14
2019-01-17T00:25:01.134Z,99008.93
2019-01-17T00:27:29.855Z,99013.80
2019-01-17T00:29:55.899Z,99016.22
2019-01-17T00:32:24.254Z,99014.38
2019-01-17T00:34:50.324Z,99004.10
2019-01-17T00:37:32.251Z,99000.52
2019-01-17T00:40:10.250Z,98996.81
2019-01-17T00:42:36.294Z,98999.57
2019-01-17T00:45:08.095Z,98992.69
2019-01-17T00:47:49.090Z,98997.69
2019-01-17T00:50:33.172Z,98991.11
2019-01-17T00:52:59.219Z,98989.17
2019-01-17T00:55:41.183Z,98997.20
2019-01-17T00:58:18.915Z,98984.59
2019-01-17T01:00:56.960Z,98973.86
2019-01-17T01:03:25.716Z,98988.17
2019-01-17T01:05:51.759Z,98985.69
2019-01-17T01:08:33.595Z,98982.06
2019-01-17T01:11:02.318Z,98983.55
2019-01-17T01:13:34.091Z,98983.39
2019-01-17T01:16:00.259Z,98975.78
2019-01-17T01:18:35.040Z,98979.70
2019-01-17T01:21:17.233Z,98981.27
2019-01-17T01:23:59.461Z,98967.80
2019-01-17T01:26:43.350Z,98930.69
2019-01-17T01:29:21.435Z,98989.52
2019-01-17T01:31:59.285Z,98973.25
2019-01-17T01:34:25.370Z,98975.98
2019-01-17T01:36:51.470Z,98974.13
2019-01-17T01:39:26.442Z,98975.55
2019-01-17T01:41:58.301Z,98985.64
2019-01-17T01:44:40.623Z,98979.19
2019-01-17T01:47:06.650Z,98967.42
2019-01-17T01:49:35.604Z,98967.00
2019-01-17T01:52:04.345Z,98954.96
2019-01-17T01:54:28.708Z,98968.02
2019-01-17T01:56:53.192Z,98962.25
2019-01-17T01:59:17.592Z,98963.82
2019-01-17T02:01:42.012Z,98964.48
2019-01-17T02:04:06.434Z,98977.17
2019-01-17T02:06:30.842Z,98978.84
2019-01-17T02:08:55.239Z,98966.59
2019-01-17T02:11:19.620Z,98980.94
2019-01-17T02:13:44.514Z,98966.10
2019-01-17T02:16:11.230Z,98973.80
2019-01-17T02:18:35.662Z,98967.20
2019-01-17T02:21:00.059Z,98973.52
2019-01-17T02:23:24.473Z,98969.50
2019-01-17T02:25:48.859Z,98992.12
2019-01-17T02:28:13.259Z,98977.14
2019-01-17T02:30:37.752Z,98983.24
2019-01-17T02:33:02.168Z,98971.20
2019-01-17T02:35:26.586Z,98967.14
2019-01-17T02:37:50.996Z,98966.42
2019-01-17T02:40:15.484Z,98968.59
2019-01-17T02:42:39.942Z,98967.34
2019-01-17T02:45:06.089Z,98977.95
2019-01-17T02:47:30.479Z,98974.17
2019-01-17T02:49:54.862Z,98972.95
2019-01-17T02:52:19.291Z,98969.61
2019-01-17T02:54:43.690Z,98967.47
2019-01-17T02:57:08.099Z,98962.47
2019-01-17T02:59:32.490Z,98969.45
2019-01-17T03:01:56.923Z,98959.11
2019-01-17T03:04:21.328Z,98966.85
2019-01-17T03:06:45.704Z,98975.11
2019-01-17T03:09:10.129Z,98974.67
2019-01-17T03:11:34.542Z,98966.75
2019-01-17T03:13:58.956Z,98975.80
2019-01-17T03:16:23.348Z,98969.66
2019-01-17T03:18:47.773Z,98981.42
2019-01-17T03:21:12.174Z,98983.40
2019-01-17T03:23:36.577Z,98992.81
2019-01-17T03:26:00.970Z,98993.38
2019-01-17T03:28:25.367Z,98984.11
2019-01-17T03:30:49.869Z,99002.41
2019-01-17T03:33:14.243Z,98989.47
2019-01-17T03:35:38.681Z,98988.58
2019-01-17T03:38:03.063Z,98995.17
2019-01-17T03:40:27.465Z,98991.53
2019-01-17T03:42:51.869Z,99000.09
2019-01-17T03:45:16.267Z,98999.64
2019-01-17T03:47:40.831Z,98994.66
2019-01-17T03:50:08.626Z,98992.19
2019-01-17T03:52:33.024Z,98988.03
2019-01-17T03:54:57.403Z,98991.14
2019-01-17T03:57:21.781Z,98996.05
2019-01-17T03:59:46.192Z,98978.70
2019-01-17T04:02:10.648Z,98996.32
2019-01-17T04:04:35.065Z,99002.86
2019-01-17T04:06:59.463Z,98997.20
2019-01-17T04:09:23.924Z,99005.08
2019-01-17T04:11:48.299Z,99009.98
2019-01-17T04:14:12.727Z,99011.61
2019-01-17T04:16:37.121Z,99006.83
2019-01-17T04:19:01.499Z,99019.34
2019-01-17T04:21:25.908Z,99008.91
2019-01-17T04:23:50.293Z,99014.38
2019-01-17T04:26:14.700Z,99017.81
2019-01-17T04:28:39.091Z,99029.14
2019-01-17T04:31:03.508Z,99013.95
2019-01-17T04:33:27.906Z,99022.08
2019-01-17T04:35:52.376Z,99019.94
2019-01-17T04:38:16.778Z,99020.71
2019-01-17T04:40:41.179Z,99027.92
2019-01-17T04:43:05.591Z,98980.06
2019-01-17T04:45:29.973Z,99037.98
2019-01-17T04:47:54.385Z,99030.86
2019-01-17T04:50:18.781Z,99041.80
2019-01-17T04:52:43.273Z,99033.92
2019-01-17T04:55:09.289Z,99027.73
2019-01-17T04:57:33.723Z,99029.62
2019-01-17T04:59:58.103Z,99033.81
2019-01-17T05:02:22.675Z,99032.81
2019-01-17T05:04:47.073Z,99040.98
2019-01-17T05:07:11.456Z,99050.83
2019-01-17T05:09:35.873Z,99054.61
2019-01-17T05:12:00.258Z,99056.85
2019-01-17T05:14:24.693Z,99049.42
2019-01-17T05:16:51.404Z,99049.08
2019-01-17T05:19:15.799Z,99061.26
2019-01-17T05:21:40.225Z,99045.47
2019-01-17T05:24:04.693Z,99047.52
2019-01-17T05:26:29.112Z,99051.13
2019-01-17T05:28:53.502Z,99048.05
2019-01-17T05:31:17.992Z,99046.05
2019-01-17T05:33:42.373Z,99046.48
2019-01-17T05:36:06.857Z,99043.77
2019-01-17T05:38:31.239Z,99038.25
2019-01-17T05:40:55.630Z,99042.66
2019-01-17T05:43:20.031Z,99051.98
2019-01-17T05:45:44.428Z,99053.36
2019-01-17T05:48:08.849Z,99052.50
2019-01-17T05:50:33.247Z,99048.64
2019-01-17T05:52:57.663Z,99053.54
2019-01-17T05:55:22.041Z,99050.23
2019-01-17T05:57:46.451Z,99054.69
2019-01-17T06:00:16.172Z,99046.44
2019-01-17T06:02:40.576Z,99034.96
2019-01-17T06:05:06.822Z,99055.77
2019-01-17T06:07:31.267Z,99055.21
2019-01-17T06:09:55.714Z,99059.70
2019-01-17T06:12:20.242Z,99066.77
2019-01-17T06:14:44.807Z,99070.96
2019-01-17T06:17:09.315Z,99070.14
2019-01-17T06:19:33.798Z,99063.13
2019-01-17T06:21:58.195Z,99066.58
2019-01-17T06:24:22.610Z,99073.81
2019-01-17T06:26:47.026Z,99061.52
2019-01-17T06:29:11.433Z,99060.22
2019-01-17T06:31:35.876Z,99061.34
2019-01-17T06:34:00.261Z,99065.61
2019-01-17T06:36:24.636Z,99063.23
2019-01-17T06:38:49.059Z,99062.53
2019-01-17T06:41:13.460Z,99063.64
2019-01-17T06:43:37.877Z,99063.31
2019-01-17T06:46:02.283Z,99062.22
2019-01-17T06:48:26.676Z,99079.17
2019-01-17T06:50:51.082Z,99058.33
2019-01-17T06:53:15.474Z,99064.89
2019-01-17T06:55:39.885Z,99062.97
2019-01-17T06:58:04.336Z,99062.80
2019-01-17T07:00:28.755Z,99064.87
2019-01-17T07:02:53.136Z,99065.28
2019-01-17T07:05:17.517Z,99073.08
2019-01-17T07:07:41.985Z,99080.47
2019-01-17T07:10:09.266Z,99066.72
2019-01-17T07:12:33.679Z,99067.62
2019-01-17T07:14:58.060Z,99071.03
2019-01-17T07:17:22.459Z,99072.75
2019-01-17T07:19:46.843Z,99079.77
2019-01-17T07:22:11.232Z,99078.37
2019-01-17T07:24:35.659Z,99079.84
2019-01-17T07:27:00.133Z,99074.59
2019-01-17T07:29:24.532Z,99080.50
2019-01-17T07:31:48.951Z,99084.11
2019-01-17T07:34:13.332Z,99069.48
2019-01-17T07:36:37.760Z,99085.63
2019-01-17T07:39:02.153Z,99096.99
2019-01-17T07:41:26.558Z,99094.32
2019-01-17T07:43:50.939Z,99092.92
2019-01-17T07:46:15.406Z,99101.95
2019-01-17T07:48:39.822Z,99102.86
2019-01-17T07:51:04.385Z,99103.17
2019-01-17T07:53:28.781Z,99105.84
2019-01-17T07:55:53.189Z,99114.14
2019-01-17T07:58:17.579Z,99123.09
2019-01-17T08:00:41.988Z,99113.36
2019-01-17T08:03:06.378Z,99116.81
2019-01-17T08:05:30.804Z,99119.30
2019-01-17T08:07:55.187Z,99067.25
2019-01-17T08:10:20.724Z,99138.50
2019-01-17T08:12:45.375Z,99121.86
2019-01-17T08:15:11.599Z,99126.64
2019-01-17T08:17:36.044Z,99129.32
2019-01-17T08:20:00.441Z,99141.70
2019-01-17T08:22:24.859Z,99136.66
2019-01-17T08:24:49.258Z,99132.52
2019-01-17T08:27:13.652Z,99136.80
2019-01-17T08:29:38.063Z,99127.02
2019-01-17T08:32:02.474Z,99129.84
2019-01-17T08:34:28.396Z,99133.89
2019-01-17T08:36:52.833Z,99125.39
2019-01-17T08:39:17.254Z,99135.27
2019-01-17T08:41:41.656Z,99143.00
2019-01-17T08:44:06.028Z,99105.03
2019-01-17T08:46:30.468Z,99134.76
2019-01-17T08:48:54.852Z,99142.48
2019-01-17T08:51:19.254Z,99130.97
2019-01-17T08:53:43.648Z,99140.52
2019-01-17T08:56:08.130Z,99132.86
2019-01-17T08:58:32.512Z,99152.81
2019-01-17T09:00:56.925Z,99140.95
2019-01-17T09:03:21.313Z,99150.28
2019-01-17T09:05:45.700Z,99137.40
2019-01-17T09:08:10.116Z,99138.05
2019-01-17T09:10:34.502Z,99089.70
2019-01-17T09:12:58.935Z,99131.83
2019-01-17T09:15:26.238Z,99134.13
2019-01-17T09:17:50.688Z,99142.39
2019-01-17T09:20:15.486Z,99152.88
2019-01-17T09:22:39.902Z,99147.30
2019-01-17T09:25:06.216Z,99150.23
2019-01-17T09:27:30.655Z,99151.59
2019-01-17T09:29:55.033Z,99140.74
2019-01-17T09:32:19.466Z,99160.00
2019-01-17T09:34:43.869Z,99150.04
2019-01-17T09:37:08.252Z,99136.97
2019-01-17T09:39:32.726Z,99148.63
2019-01-17T09:41:57.126Z,99141.94
2019-01-17T09:44:21.519Z,99140.23
2019-01-17T09:46:45.911Z,99133.17
2019-01-17T09:49:10.314Z,99142.12
2019-01-17T09:51:34.693Z,99137.81
2019-01-17T09:53:59.072Z,99144.89
2019-01-17T09:56:23.482Z,99143.69
2019-01-17T09:58:47.870Z,99142.98
2019-01-17T10:01:12.282Z,99134.02
2019-01-17T10:03:36.694Z,99127.50
2019-01-17T10:06:01.109Z,99123.48
2019-01-17T10:08:25.487Z,99121.70
2019-01-17T10:10:49.889Z,99119.38
2019-01-17T10:13:14.311Z,99113.16
2019-01-17T10:15:50.441Z,99108.50
2019-01-17T10:18:33.059Z,99112.42
2019-01-17T10:21:18.351Z,99106.25
2019-01-17T10:24:13.804Z,99109.56
2019-01-17T10:26:59.198Z,99118.55
2019-01-17T10:29:29.515Z,99112.27
2019-01-17T10:32:11.430Z,99108.49
2019-01-17T10:34:38.896Z,99108.63
2019-01-17T10:37:11.838Z,99096.17
2019-01-17T10:39:39.359Z,99096.42
2019-01-17T10:42:06.824Z,99111.05
2019-01-17T10:44:42.953Z,99095.88
2019-01-17T10:47:34.354Z,99097.06
2019-01-17T10:50:04.542Z,99101.63
2019-01-17T10:52:49.889Z,99095.84
2019-01-17T10:55:35.001Z,99096.20
2019-01-17T10:58:18.829Z,99091.48
2019-01-17T11:01:11.744Z,99091.89
2019-01-17T11:03:50.587Z,99091.12
2019-01-17T11:06:26.353Z,99078.26
2019-01-17T11:08:59.860Z,99082.27
2019-01-17T11:11:27.322Z,99081.44
2019-01-17T11:14:00.433Z,99083.77
2019-01-17T11:16:36.557Z,99083.84
2019-01-17T11:19:24.808Z,99074.03
2019-01-17T11:22:14.411Z,99074.98
2019-01-17T11:24:44.444Z,99068.89
2019-01-17T11:27:23.130Z,99074.12
2019-01-17T11:30:06.862Z,99070.14
2019-01-17T11:32:34.303Z,99065.17
2019-01-17T11:35:10.889Z,99065.30
2019-01-17T11:37:50.031Z,99058.14
2019-01-17T11:40:44.195Z,99058.18
2019-01-17T11:43:14.320Z,99063.80
2019-01-17T11:45:59.675Z,99051.58
2019-01-17T11:48:29.772Z,99043.63
2019-01-17T11:51:00.127Z,99037.89
2019-01-17T11:53:30.242Z,99041.55
2019-01-17T11:56:18.446Z,99034.52
2019-01-17T11:59:02.267Z,99027.53
2019-01-17T12:01:58.712Z,99029.05
2019-01-17T12:04:31.408Z,99030.84
2019-01-17T12:06:55.784Z,99032.47
2019-01-17T12:09:20.214Z,99036.44
2019-01-17T12:11:44.621Z,99026.33
2019-01-17T12:14:09.070Z,99042.09
2019-01-17T12:16:33.469Z,99021.05
2019-01-17T12:18:57.836Z,99012.19
2019-01-17T12:21:22.269Z,99013.24
2019-01-17T12:23:46.672Z,99014.44
2019-01-17T12:26:11.091Z,99006.50
2019-01-17T12:28:35.480Z,99003.97
2019-01-17T12:30:59.904Z,98998.80
2019-01-17T12:33:24.288Z,98999.50
2019-01-17T12:35:48.680Z,99003.16
2019-01-17T12:38:13.104Z,99002.17
2019-01-17T12:40:37.506Z,98994.94
2019-01-17T12:43:01.925Z,98988.67
2019-01-17T12:45:26.300Z,98993.66
2019-01-17T12:47:52.347Z,98986.81
2019-01-17T12:50:17.076Z,98978.39
2019-01-17T12:52:41.476Z,98978.41
2019-01-17T12:55:07.922Z,98984.23
2019-01-17T12:57:32.303Z,98967.32
2019-01-17T12:59:56.730Z,98990.75
2019-01-17T13:02:21.124Z,98981.22
2019-01-17T13:04:45.532Z,98976.90
2019-01-17T13:07:09.954Z,98975.93
2019-01-17T13:09:34.330Z,98973.70
2019-01-17T13:11:58.731Z,98969.45
2019-01-17T13:14:23.108Z,98971.33
2019-01-17T13:16:47.506Z,98968.57
2019-01-17T13:19:11.907Z,98972.91
2019-01-17T13:21:36.334Z,98961.77
2019-01-17T13:24:00.730Z,98976.16
2019-01-17T13:26:25.164Z,98970.70
2019-01-17T13:28:49.562Z,99005.56
2019-01-17T13:31:13.966Z,98984.31
2019-01-17T13:33:38.379Z,98991.98
2019-01-17T13:36:03.856Z,98985.63
2019-01-17T13:38:28.285Z,98964.72
2019-01-17T13:40:52.672Z,98965.20
2019-01-17T13:43:17.086Z,98964.72
2019-01-17T13:45:41.507Z,98958.55
2019-01-17T13:48:06.050Z,98957.94
2019-01-17T13:50:30.502Z,98951.19
2019-01-17T13:52:54.876Z,98959.36
2019-01-17T13:55:19.262Z,98969.19
2019-01-17T13:57:43.742Z,98965.80
2019-01-17T14:00:19.535Z,98964.22
2019-01-17T14:02:43.948Z,98971.66
2019-01-17T14:05:08.397Z,98975.45
2019-01-17T14:07:32.810Z,98967.91
2019-01-17T14:09:57.226Z,98927.71
2019-01-17T14:12:21.624Z,98963.64
2019-01-17T14:14:46.026Z,98938.64
2019-01-17T14:17:10.442Z,98936.37
2019-01-17T14:19:35.679Z,98946.30
2019-01-17T14:22:00.107Z,98946.36
2019-01-17T14:24:24.504Z,98945.61
2019-01-17T14:26:48.925Z,98967.95
2019-01-17T14:29:13.329Z,98967.96
2019-01-17T14:31:37.729Z,98970.27
2019-01-17T14:34:02.153Z,98960.80
2019-01-17T14:36:26.537Z,98948.13
2019-01-17T14:38:50.962Z,98965.70
2019-01-17T14:41:15.349Z,98955.30
2019-01-17T14:43:39.777Z,98962.89
2019-01-17T14:46:04.187Z,98967.67
2019-01-17T14:48:28.568Z,98974.66
2019-01-17T14:50:53.003Z,98982.23
2019-01-17T14:53:17.393Z,98979.47
2019-01-17T14:55:41.806Z,98977.19
2019-01-17T14:58:06.225Z,98982.59
2019-01-17T15:00:32.280Z,98991.05
2019-01-17T15:02:56.661Z,98984.68
2019-01-17T15:05:21.160Z,98986.59
2019-01-17T15:07:45.534Z,98987.37
2019-01-17T15:10:15.412Z,98996.39
2019-01-17T15:12:39.835Z,98997.33
2019-01-17T15:15:05.475Z,98999.16
2019-01-17T15:17:29.899Z,99001.70
2019-01-17T15:19:54.275Z,99011.94
2019-01-17T15:22:18.675Z,99007.33
2019-01-17T15:24:43.056Z,99017.10
2019-01-17T15:27:07.465Z,99020.90
2019-01-17T15:29:31.860Z,99022.61
2019-01-17T15:31:56.295Z,99022.41
2019-01-17T15:34:20.697Z,99026.14
2019-01-17T15:36:45.127Z,99023.08
2019-01-17T15:39:09.819Z,99030.52
2019-01-17T15:41:34.233Z,99035.75
2019-01-17T15:43:58.667Z,99029.66
2019-01-17T15:46:23.047Z,99044.25
2019-01-17T15:48:47.427Z,99034.81
2019-01-17T15:51:11.860Z,99039.98
2019-01-17T15:53:36.246Z,99038.60
2019-01-17T15:56:00.668Z,99045.30
2019-01-17T15:58:25.078Z,99046.98
2019-01-17T16:00:49.513Z,99051.69
2019-01-17T16:03:13.909Z,99052.97
2019-01-17T16:05:38.335Z,99058.81
2019-01-17T16:08:02.742Z,99076.64
2019-01-17T16:10:27.152Z,99097.12
2019-01-17T16:12:51.589Z,99074.48
2019-01-17T16:15:18.346Z,99085.20
2019-01-17T16:17:42.816Z,99106.95
2019-01-17T16:20:12.836Z,99107.86
2019-01-17T16:22:37.263Z,99107.05
2019-01-17T16:25:01.679Z,99100.14
2019-01-17T16:27:26.085Z,99120.73
2019-01-17T16:29:50.505Z,99127.66
2019-01-17T16:32:14.886Z,99123.69
2019-01-17T16:34:39.330Z,99123.70
2019-01-17T16:37:03.714Z,99128.01
2019-01-17T16:39:28.150Z,99123.50
2019-01-17T16:41:52.546Z,99127.88
2019-01-17T16:44:16.924Z,99138.95
2019-01-17T16:46:41.350Z,99137.13
2019-01-17T16:49:05.742Z,99142.53
2019-01-17T16:51:30.155Z,99139.82
2019-01-17T16:53:54.543Z,99149.28
2019-01-17T16:56:18.977Z,99152.41
2019-01-17T16:58:43.375Z,99097.73
2019-01-17T17:01:07.763Z,99155.99
2019-01-17T17:03:32.207Z,99167.98
2019-01-17T17:05:56.587Z,99174.17
2019-01-17T17:08:21.023Z,99161.44
2019-01-17T17:10:45.452Z,99174.28
2019-01-17T17:13:09.847Z,99165.34
2019-01-17T17:15:34.386Z,99169.31
2019-01-17T17:17:58.773Z,99186.25
2019-01-17T17:20:24.840Z,99178.40
2019-01-17T17:22:49.409Z,99184.30
2019-01-17T17:25:13.986Z,99184.34
2019-01-17T17:27:38.372Z,99185.55
2019-01-17T17:30:03.076Z,99197.11
2019-01-17T17:32:30.571Z,99204.58
2019-01-17T17:34:54.987Z,99205.88
2019-01-17T17:37:19.392Z,99209.98
2019-01-17T17:39:43.781Z,99201.03
2019-01-17T17:42:08.210Z,99207.97
2019-01-17T17:44:32.616Z,99208.26
2019-01-17T17:46:57.504Z,99212.06
2019-01-17T17:49:21.832Z,99212.73
2019-01-17T17:51:46.249Z,99219.61
2019-01-17T17:54:10.653Z,99230.86
2019-01-17T17:56:35.079Z,99232.82
2019-01-17T17:58:59.573Z,99243.80
2019-01-17T18:01:24.608Z,99234.86
2019-01-17T18:03:49.031Z,99234.91
2019-01-17T18:06:13.432Z,99236.08
2019-01-17T18:08:37.857Z,99239.91
2019-01-17T18:11:02.243Z,99243.39
2019-01-17T18:13:26.681Z,99246.22
2019-01-17T18:15:51.066Z,99246.92
2019-01-17T18:18:15.490Z,99258.00
2019-01-17T18:20:39.951Z,99248.64
2019-01-17T18:23:04.480Z,99250.52
2019-01-17T18:25:28.903Z,99258.70
2019-01-17T18:27:53.282Z,99265.12
2019-01-17T18:30:23.623Z,99267.79
2019-01-17T18:32:48.206Z,99269.79
2019-01-17T18:35:13.229Z,99281.46
2019-01-17T18:37:37.597Z,99283.41
2019-01-17T18:40:02.065Z,99280.36
2019-01-17T18:42:26.485Z,99280.25
2019-01-17T18:44:50.872Z,99289.48
2019-01-17T18:47:30.236Z,99287.58
2019-01-17T18:49:54.633Z,99301.91
2019-01-17T18:52:19.138Z,99301.52
2019-01-17T18:54:43.531Z,99296.23
2019-01-17T18:57:07.947Z,99315.86
2019-01-17T18:59:32.409Z,99302.53
2019-01-17T19:01:56.792Z,99313.26
2019-01-17T19:04:21.293Z,99316.98
2019-01-17T19:06:45.673Z,99317.48
2019-01-17T19:09:10.276Z,99330.47
2019-01-17T19:11:34.648Z,99327.88
2019-01-17T19:13:59.138Z,99322.71
2019-01-17T19:16:23.622Z,99329.93
2019-01-17T19:18:48.024Z,99333.21
2019-01-17T19:21:12.444Z,99338.41
2019-01-17T19:23:36.837Z,99338.14
2019-01-17T19:26:01.254Z,99339.39
2019-01-17T19:28:25.648Z,99340.86
2019-01-17T19:30:50.092Z,99354.78
2019-01-17T19:33:14.492Z,99364.73
2019-01-17T19:35:38.872Z,99375.84
2019-01-17T19:38:03.292Z,99382.04
2019-01-17T19:40:29.703Z,99388.12
2019-01-17T19:42:54.284Z,99383.20
2019-01-17T19:45:18.826Z,99379.76
2019-01-17T19:47:43.447Z,99389.11
2019-01-17T19:50:10.892Z,99396.95
2019-01-17T19:52:35.275Z,99402.81
2019-01-17T19:54:59.677Z,99418.44
2019-01-17T19:57:24.072Z,99428.16
2019-01-17T19:59:48.508Z,99425.89
2019-01-17T20:02:12.970Z,99434.41
2019-01-17T20:04:41.642Z,99430.95
2019-01-17T20:07:03.506Z,99441.14
2019-01-17T20:09:27.965Z,99433.62
2019-01-17T20:11:52.342Z,99437.34
2019-01-17T20:14:16.803Z,99436.04
2019-01-17T20:16:41.197Z,99450.59
2019-01-17T20:19:05.844Z,99453.13
2019-01-17T20:21:30.256Z,99449.41
2019-01-17T20:23:54.659Z,99446.76
2019-01-17T20:26:19.098Z,99447.28
2019-01-17T20:28:43.517Z,99458.38
2019-01-17T20:31:08.050Z,99459.16
2019-01-17T20:33:32.454Z,99472.31
2019-01-17T20:35:56.862Z,99471.48
2019-01-17T20:38:21.282Z,99481.33
2019-01-17T20:40:45.671Z,99483.67
2019-01-17T20:43:10.117Z,99496.95
2019-01-17T20:45:34.507Z,99492.87
2019-01-17T20:47:58.916Z,99495.89
2019-01-17T20:50:26.379Z,99494.58
2019-01-17T20:52:50.809Z,99502.08
2019-01-17T20:55:15.290Z,99500.98
2019-01-17T20:57:40.022Z,99502.02
2019-01-17T21:00:16.581Z,99501.05
2019-01-17T21:02:40.968Z,99498.20
2019-01-17T21:05:07.879Z,99504.09
2019-01-17T21:07:32.305Z,99510.92
2019-01-17T21:09:56.697Z,99513.72
2019-01-17T21:12:21.132Z,99527.66
2019-01-17T21:14:45.508Z,99523.35
2019-01-17T21:17:09.940Z,99528.50
2019-01-17T21:19:34.348Z,99538.53
2019-01-17T21:21:58.737Z,99539.44
2019-01-17T21:24:23.165Z,99549.59
2019-01-17T21:26:47.554Z,99551.21
2019-01-17T21:29:11.965Z,99566.84
2019-01-17T21:31:36.368Z,99562.73
2019-01-17T21:34:00.792Z,99575.48
2019-01-17T21:36:25.178Z,99577.43
2019-01-17T21:38:49.567Z,99582.98
2019-01-17T21:41:13.994Z,99588.20
2019-01-17T21:43:38.364Z,99587.06
2019-01-17T21:46:02.765Z,99591.59
2019-01-17T21:48:27.165Z,99619.28
2019-01-17T21:50:51.586Z,99624.31
2019-01-17T21:53:15.971Z,99615.98
2019-01-17T21:55:40.367Z,99634.52
2019-01-17T21:58:04.954Z,99623.22
2019-01-17T22:00:30.109Z,99623.98
2019-01-17T22:02:54.546Z,99636.28
2019-01-17T22:05:18.994Z,99639.56
2019-01-17T22:07:43.393Z,99634.31
2019-01-17T22:10:10.912Z,99641.91
2019-01-17T22:12:35.377Z,99650.89
2019-01-17T22:14:59.782Z,99648.56
2019-01-17T22:17:26.150Z,99662.97
2019-01-17T22:19:50.549Z,99655.16
2019-01-17T22:22:15.026Z,99664.16
2019-01-17T22:24:39.446Z,99665.75
2019-01-17T22:27:03.830Z,99669.23
2019-01-17T22:29:28.243Z,99664.17
2019-01-17T22:31:52.639Z,99673.46
2019-01-17T22:34:17.056Z,99671.60
2019-01-17T22:36:41.459Z,99685.66
2019-01-17T22:39:06.791Z,99681.55
2019-01-17T22:41:31.201Z,99691.91
2019-01-17T22:43:55.591Z,99692.32
2019-01-17T22:46:20.021Z,99701.84
2019-01-17T22:48:44.428Z,99710.45
2019-01-17T22:51:08.917Z,99714.00
2019-01-17T22:53:33.303Z,99712.22
2019-01-17T22:55:57.701Z,99722.97
2019-01-17T22:58:22.110Z,99724.13
2019-01-17T23:00:50.920Z,99734.47
2019-01-17T23:03:15.309Z,99675.92
2019-01-17T23:05:39.696Z,99750.86
2019-01-17T23:08:04.194Z,99745.03
2019-01-17T23:10:28.574Z,99764.16
2019-01-17T23:12:53.001Z,99770.78
2019-01-17T23:15:17.381Z,99789.11
2019-01-17T23:17:41.755Z,99796.14
2019-01-17T23:20:09.279Z,99821.55
2019-01-17T23:22:33.723Z,99841.34
2019-01-17T23:24:58.157Z,99845.94
2019-01-17T23:27:22.538Z,99854.18
2019-01-17T23:29:46.913Z,99847.09
2019-01-17T23:32:11.319Z,99848.92
2019-01-17T23:34:35.715Z,99862.72
2019-01-17T23:37:00.125Z,99873.48
2019-01-17T23:39:24.516Z,99874.59
2019-01-17T23:41:48.936Z,99886.63
2019-01-17T23:44:13.341Z,99892.17
2019-01-17T23:46:37.745Z,99898.45
2019-01-17T23:49:02.165Z,99901.95
2019-01-17T23:51:26.558Z,99903.00
2019-01-17T23:53:50.968Z,99921.83
2019-01-17T23:56:15.365Z,99929.71
2019-01-17T23:58:39.766Z,99941.55
